createdAt,value
2018-11-02T00:01:53.587Z,5.50
2018-11-02T00:04:21.768Z,6.37
2018-11-02T00:06:50.149Z,6.83
2018-11-02T00:09:18.429Z,5.73
2018-11-02T00:11:46.552Z,20.43
2018-11-02T00:14:14.976Z,43.67
2018-11-02T00:16:43.139Z,17.70
2018-11-02T00:19:11.378Z,12.53
2018-11-02T00:21:39.562Z,10.83
2018-11-02T00:24:07.815Z,7.50
2018-11-02T00:26:35.979Z,4.97
2018-11-02T00:29:04.614Z,5.87
2018-11-02T00:31:32.767Z,6.00
2018-11-02T00:34:01.076Z,5.70
2018-11-02T00:36:29.405Z,9.37
2018-11-02T00:38:57.597Z,7.97
2018-11-02T00:41:25.856Z,9.53
2018-11-02T00:43:54.041Z,10.53
2018-11-02T00:46:22.217Z,13.07
2018-11-02T00:48:50.692Z,10.20
2018-11-02T00:51:19.981Z,9.97
2018-11-02T00:53:48.189Z,8.00
2018-11-02T00:56:16.393Z,7.83
2018-11-02T00:58:44.538Z,7.37
2018-11-02T01:01:12.750Z,5.47
2018-11-02T01:03:40.958Z,5.73
2018-11-02T01:06:09.094Z,4.63
2018-11-02T01:08:37.381Z,7.83
2018-11-02T01:11:06.702Z,5.07
2018-11-02T01:13:35.468Z,4.60
2018-11-02T01:16:04.032Z,4.37
2018-11-02T01:18:32.275Z,3.83
2018-11-02T01:21:00.666Z,3.93
2018-11-02T01:23:28.870Z,2.57
2018-11-02T01:25:57.453Z,2.20
2018-11-02T01:28:25.830Z,2.10
2018-11-02T01:30:54.063Z,2.13
2018-11-02T01:33:29.067Z,2.27
2018-11-02T01:35:57.367Z,2.23
2018-11-02T01:38:25.830Z,1.57
2018-11-02T01:40:54.076Z,2.00
2018-11-02T01:43:22.453Z,1.37
2018-11-02T01:45:51.252Z,1.60
2018-11-02T01:48:19.522Z,1.70
2018-11-02T01:50:47.848Z,2.73
2018-11-02T01:53:16.429Z,3.73
2018-11-02T01:55:44.682Z,5.77
2018-11-02T01:58:13.364Z,3.87
2018-11-02T02:00:41.522Z,3.63
2018-11-02T02:03:09.908Z,3.97
2018-11-02T02:05:38.258Z,3.73
2018-11-02T02:08:06.664Z,3.63
2018-11-02T02:10:35.038Z,4.13
2018-11-02T02:13:03.276Z,3.70
2018-11-02T02:15:37.981Z,4.43
2018-11-02T02:18:06.280Z,3.40
2018-11-02T02:20:34.682Z,2.97
2018-11-02T02:23:03.329Z,3.73
2018-11-02T02:25:31.510Z,3.60
2018-11-02T02:27:59.844Z,2.60
2018-11-02T02:30:27.965Z,2.50
2018-11-02T02:32:56.155Z,2.57
2018-11-02T02:35:24.338Z,3.40
2018-11-02T02:37:52.534Z,3.87
2018-11-02T02:40:20.751Z,3.70
2018-11-02T02:42:48.957Z,4.67
2018-11-02T02:45:17.063Z,6.30
2018-11-02T02:47:45.600Z,5.27
2018-11-02T02:50:14.303Z,5.33
2018-11-02T02:52:43.560Z,5.97
2018-11-02T02:55:11.908Z,6.13
2018-11-02T02:57:40.237Z,6.00
2018-11-02T03:00:11.273Z,4.50
2018-11-02T03:02:39.636Z,4.40
2018-11-02T03:05:08.217Z,4.10
2018-11-02T03:07:36.403Z,3.50
2018-11-02T03:10:05.247Z,3.63
2018-11-02T03:12:34.415Z,3.83
2018-11-02T03:15:02.755Z,3.40
2018-11-02T03:17:31.385Z,3.10
2018-11-02T03:19:59.714Z,4.73
2018-11-02T03:22:28.369Z,3.17
2018-11-02T03:24:56.562Z,3.27
2018-11-02T03:27:24.788Z,3.70
2018-11-02T03:29:52.986Z,5.27
2018-11-02T03:32:21.115Z,4.47
2018-11-02T03:34:49.739Z,3.37
2018-11-02T03:37:18.083Z,4.33
2018-11-02T03:39:46.355Z,6.27
2018-11-02T03:42:14.667Z,5.77
2018-11-02T03:44:43.151Z,6.20
2018-11-02T03:47:11.388Z,6.40
2018-11-02T03:49:39.747Z,4.73
2018-11-02T03:52:08.251Z,4.80
2018-11-02T03:54:36.424Z,9.20
2018-11-02T03:57:05.368Z,5.70
2018-11-02T03:59:33.628Z,7.47
2018-11-02T04:02:02.033Z,6.60
2018-11-02T04:04:30.250Z,5.17
2018-11-02T04:06:58.438Z,4.33
2018-11-02T04:09:26.936Z,5.43
2018-11-02T04:11:55.105Z,5.00
2018-11-02T04:14:23.601Z,4.57
2018-11-02T04:16:52.010Z,4.60
2018-11-02T04:19:20.253Z,4.67
2018-11-02T04:21:48.710Z,5.23
2018-11-02T04:24:17.006Z,5.03
2018-11-02T04:26:45.564Z,4.63
2018-11-02T04:29:14.875Z,6.80
2018-11-02T04:31:43.967Z,5.03
2018-11-02T04:34:13.264Z,9.00
2018-11-02T04:36:41.757Z,8.13
2018-11-02T04:39:12.583Z,8.27
2018-11-02T04:41:40.909Z,6.53
2018-11-02T04:44:09.964Z,6.47
2018-11-02T04:46:38.719Z,6.43
2018-11-02T04:49:07.856Z,6.67
2018-11-02T04:51:36.369Z,7.10
2018-11-02T04:54:04.672Z,5.53
2018-11-02T04:56:33.058Z,6.37
2018-11-02T04:59:01.218Z,5.57
2018-11-02T05:01:29.364Z,6.13
2018-11-02T05:03:57.483Z,6.33
2018-11-02T05:06:25.606Z,7.13
2018-11-02T05:08:53.833Z,6.83
2018-11-02T05:11:22.211Z,6.27
2018-11-02T05:13:50.428Z,9.90
2018-11-02T05:16:18.538Z,6.37
2018-11-02T05:18:46.842Z,6.83
2018-11-02T05:21:14.980Z,7.33
2018-11-02T05:23:43.066Z,7.20
2018-11-02T05:26:11.220Z,7.30
2018-11-02T05:28:39.374Z,6.00
2018-11-02T05:31:07.580Z,6.17
2018-11-02T05:33:35.828Z,5.93
2018-11-02T05:36:04.639Z,5.93
2018-11-02T05:38:32.786Z,5.63
2018-11-02T05:41:00.933Z,5.77
2018-11-02T05:43:29.114Z,6.30
2018-11-02T05:45:57.604Z,6.80
2018-11-02T05:48:25.813Z,5.93
2018-11-02T05:50:54.280Z,5.80
2018-11-02T05:53:22.485Z,6.43
2018-11-02T05:55:50.816Z,7.40
2018-11-02T05:58:19.217Z,6.50
2018-11-02T06:00:47.369Z,7.47
2018-11-02T06:03:16.794Z,6.03
2018-11-02T06:05:45.067Z,7.30
2018-11-02T06:08:13.233Z,8.03
2018-11-02T06:10:41.421Z,7.17
2018-11-02T06:13:09.733Z,8.97
2018-11-02T06:15:38.173Z,8.93
2018-11-02T06:18:06.517Z,9.87
2018-11-02T06:20:34.714Z,12.10
2018-11-02T06:23:03.118Z,11.10
2018-11-02T06:25:31.416Z,14.97
2018-11-02T06:27:59.732Z,16.10
2018-11-02T06:30:27.928Z,9.73
2018-11-02T06:32:56.507Z,10.07
2018-11-02T06:35:24.660Z,10.87
2018-11-02T06:37:52.815Z,8.90
2018-11-02T06:40:21.040Z,10.03
2018-11-02T06:42:49.997Z,9.80
2018-11-02T06:45:18.379Z,10.80
2018-11-02T06:47:46.561Z,10.10
2018-11-02T06:50:14.901Z,8.30
2018-11-02T06:52:43.365Z,8.77
2018-11-02T06:55:11.589Z,7.20
2018-11-02T06:57:39.928Z,9.67
2018-11-02T07:00:11.807Z,6.60
2018-11-02T07:02:40.273Z,7.53
2018-11-02T07:05:08.685Z,7.20
2018-11-02T07:07:37.181Z,7.20
2018-11-02T07:10:06.865Z,7.70
2018-11-02T07:12:35.306Z,9.13
2018-11-02T07:15:03.916Z,7.43
2018-11-02T07:17:32.121Z,9.43
2018-11-02T07:20:00.265Z,6.90
2018-11-02T07:22:28.875Z,7.73
2018-11-02T07:24:57.361Z,6.43
2018-11-02T07:27:25.480Z,6.07
2018-11-02T07:29:53.695Z,8.30
2018-11-02T07:32:22.067Z,6.20
2018-11-02T07:34:50.485Z,7.47
2018-11-02T07:37:18.641Z,8.73
2018-11-02T07:39:47.887Z,8.07
2018-11-02T07:42:16.224Z,8.23
2018-11-02T07:44:44.629Z,8.33
2018-11-02T07:47:13.032Z,8.53
2018-11-02T07:49:42.401Z,7.10
2018-11-02T07:52:10.511Z,22.00
2018-11-02T07:54:38.727Z,13.87
2018-11-02T07:57:07.131Z,18.50
2018-11-02T07:59:35.277Z,8.80
2018-11-02T08:02:03.830Z,8.63
2018-11-02T08:04:31.871Z,6.53
2018-11-02T08:06:59.942Z,7.40
2018-11-02T08:09:28.130Z,5.67
2018-11-02T08:11:56.366Z,6.80
2018-11-02T08:14:24.471Z,6.13
2018-11-02T08:16:52.572Z,6.73
2018-11-02T08:19:21.837Z,6.70
2018-11-02T08:21:49.967Z,6.33
2018-11-02T08:24:18.236Z,5.57
2018-11-02T08:26:46.445Z,5.23
2018-11-02T08:29:14.775Z,6.67
2018-11-02T08:31:42.902Z,4.97
2018-11-02T08:34:11.287Z,5.93
2018-11-02T08:36:39.403Z,6.00
2018-11-02T08:39:09.420Z,7.97
2018-11-02T08:41:37.685Z,5.10
2018-11-02T08:44:06.676Z,6.63
2018-11-02T08:46:34.947Z,6.97
2018-11-02T08:49:03.486Z,5.90
2018-11-02T08:51:31.778Z,6.47
2018-11-02T08:53:59.999Z,6.20
2018-11-02T08:56:28.224Z,5.87
2018-11-02T08:58:56.417Z,8.50
2018-11-02T09:01:24.680Z,8.40
2018-11-02T09:03:52.966Z,6.20
2018-11-02T09:06:21.115Z,6.07
2018-11-02T09:08:49.480Z,7.00
2018-11-02T09:11:17.687Z,5.77
2018-11-02T09:13:45.867Z,10.23
2018-11-02T09:16:15.181Z,6.20
2018-11-02T09:18:43.280Z,7.53
2018-11-02T09:21:11.537Z,6.33
2018-11-02T09:23:39.710Z,8.27
2018-11-02T09:26:07.868Z,5.77
2018-11-02T09:28:36.038Z,6.80
2018-11-02T09:31:04.211Z,6.93
2018-11-02T09:33:32.305Z,5.40
2018-11-02T09:36:00.475Z,8.87
2018-11-02T09:38:28.969Z,5.37
2018-11-02T09:40:57.096Z,8.17
2018-11-02T09:43:26.032Z,6.00
2018-11-02T09:45:54.486Z,5.80
2018-11-02T09:48:22.633Z,6.87
2018-11-02T09:50:51.052Z,6.77
2018-11-02T09:53:19.549Z,5.97
2018-11-02T09:55:47.743Z,6.47
2018-11-02T09:58:15.909Z,6.07
2018-11-02T10:00:44.125Z,5.47
2018-11-02T10:03:12.498Z,4.80
2018-11-02T10:05:40.695Z,8.33
2018-11-02T10:08:08.911Z,6.27
2018-11-02T10:10:37.562Z,5.50
2018-11-02T10:13:05.960Z,4.60
2018-11-02T10:15:34.206Z,4.50
2018-11-02T10:18:02.410Z,4.20
2018-11-02T10:20:30.898Z,4.67
2018-11-02T10:23:00.419Z,5.07
2018-11-02T10:25:28.709Z,5.17
2018-11-02T10:27:57.229Z,6.37
2018-11-02T10:30:25.587Z,6.17
2018-11-02T10:32:56.604Z,4.83
2018-11-02T10:35:25.398Z,4.83
2018-11-02T10:37:56.916Z,4.83
2018-11-02T10:40:25.368Z,9.07
2018-11-02T10:43:03.886Z,5.07
2018-11-02T10:45:35.857Z,3.53
2018-11-02T10:48:06.272Z,5.23
2018-11-02T10:50:34.597Z,2.60
2018-11-02T10:53:03.345Z,2.60
2018-11-02T10:55:31.737Z,4.30
2018-11-02T10:58:00.056Z,3.50
2018-11-02T11:01:36.904Z,4.10
2018-11-02T11:04:06.299Z,4.30
2018-11-02T11:06:35.218Z,4.37
2018-11-02T11:09:06.106Z,4.47
2018-11-02T11:11:34.387Z,4.27
2018-11-02T11:14:02.637Z,5.37
2018-11-02T11:16:30.898Z,3.83
2018-11-02T11:18:59.259Z,3.67
2018-11-02T11:21:27.490Z,2.80
2018-11-02T11:23:55.813Z,2.80
2018-11-02T11:26:24.277Z,3.13
2018-11-02T11:28:52.442Z,4.40
2018-11-02T11:31:20.738Z,3.60
2018-11-02T11:33:49.022Z,3.40
2018-11-02T11:36:17.339Z,3.03
2018-11-02T11:38:45.567Z,3.93
2018-11-02T11:41:13.984Z,2.10
2018-11-02T11:43:42.403Z,2.27
2018-11-02T11:46:10.568Z,2.17
2018-11-02T11:48:39.621Z,2.40
2018-11-02T11:51:07.916Z,2.50
2018-11-02T11:53:36.965Z,3.30
2018-11-02T11:56:06.023Z,2.10
2018-11-02T11:58:34.204Z,2.50
2018-11-02T12:01:02.350Z,2.23
2018-11-02T12:03:30.920Z,1.93
2018-11-02T12:05:59.185Z,2.20
2018-11-02T12:08:27.500Z,2.10
2018-11-02T12:10:56.073Z,2.80
2018-11-02T12:13:24.256Z,2.17
2018-11-02T12:15:52.611Z,2.30
2018-11-02T12:18:20.710Z,2.60
2018-11-02T12:20:49.129Z,2.93
2018-11-02T12:23:17.567Z,2.60
2018-11-02T12:25:45.769Z,2.40
2018-11-02T12:28:14.029Z,2.60
2018-11-02T12:30:42.440Z,2.83
2018-11-02T12:33:10.555Z,2.70
2018-11-02T12:35:43.007Z,2.30
2018-11-02T12:38:11.350Z,2.47
2018-11-02T12:40:39.579Z,3.03
2018-11-02T12:43:08.186Z,2.83
2018-11-02T12:45:36.568Z,18.40
2018-11-02T12:48:04.944Z,4.33
2018-11-02T12:50:33.091Z,4.03
2018-11-02T12:53:01.404Z,3.07
2018-11-02T12:55:29.754Z,3.33
2018-11-02T12:57:58.235Z,2.60
2018-11-02T13:00:27.457Z,2.77
2018-11-02T13:02:56.007Z,2.30
2018-11-02T13:05:24.263Z,4.13
2018-11-02T13:07:52.539Z,2.70
2018-11-02T13:10:22.069Z,3.33
2018-11-02T13:12:50.281Z,2.70
2018-11-02T13:15:19.968Z,2.73
2018-11-02T13:17:48.651Z,3.57
2018-11-02T13:20:17.064Z,2.93
2018-11-02T13:22:46.304Z,2.50
2018-11-02T13:25:16.638Z,2.90
2018-11-02T13:27:45.307Z,2.90
2018-11-02T13:30:13.904Z,4.27
2018-11-02T13:32:42.523Z,3.17
2018-11-02T13:35:13.263Z,2.30
2018-11-02T13:37:42.403Z,4.70
2018-11-02T13:40:12.128Z,5.60
2018-11-02T13:42:40.794Z,4.73
2018-11-02T13:45:10.688Z,2.40
2018-11-02T13:47:39.590Z,2.93
2018-11-02T13:50:08.056Z,3.60
2018-11-02T13:52:36.249Z,3.03
2018-11-02T13:55:05.674Z,2.33
2018-11-02T13:57:34.035Z,2.33
2018-11-02T14:00:02.327Z,3.87
2018-11-02T14:02:30.687Z,3.03
2018-11-02T14:04:59.030Z,4.17
2018-11-02T14:07:27.456Z,4.00
2018-11-02T14:09:55.673Z,7.13
2018-11-02T14:12:23.877Z,4.83
2018-11-02T14:14:52.063Z,5.67
2018-11-02T14:17:20.754Z,7.87
2018-11-02T14:19:50.529Z,10.60
2018-11-02T14:22:18.693Z,8.57
2018-11-02T14:24:47.005Z,5.40
2018-11-02T14:27:15.153Z,5.17
2018-11-02T14:29:44.550Z,4.97
2018-11-02T14:32:12.738Z,4.07
2018-11-02T14:34:41.146Z,3.57
2018-11-02T14:37:09.250Z,4.13
2018-11-02T14:39:37.570Z,3.50
2018-11-02T14:42:05.988Z,2.93
2018-11-02T14:44:34.271Z,3.10
2018-11-02T14:47:02.526Z,4.10
2018-11-02T14:49:31.418Z,3.20
2018-11-02T14:51:59.638Z,4.03
2018-11-02T14:54:28.110Z,3.20
2018-11-02T14:56:56.354Z,4.80
2018-11-02T14:59:24.715Z,3.53
2018-11-02T15:01:53.062Z,4.03
2018-11-02T15:04:21.764Z,4.13
2018-11-02T15:06:49.973Z,4.60
2018-11-02T15:09:18.331Z,3.77
2018-11-02T15:11:47.760Z,2.87
2018-11-02T15:14:15.954Z,3.87
2018-11-02T15:16:44.239Z,5.30
2018-11-02T15:19:12.443Z,3.90
2018-11-02T15:21:40.766Z,4.77
2018-11-02T15:24:08.949Z,11.30
2018-11-02T15:26:37.407Z,11.73
2018-11-02T15:29:05.680Z,26.57
2018-11-02T15:31:34.001Z,9.37
2018-11-02T15:34:02.104Z,6.57
2018-11-02T15:36:30.505Z,5.97
2018-11-02T15:38:58.700Z,14.17
2018-11-02T15:41:27.182Z,14.63
2018-11-02T15:43:55.336Z,9.03
2018-11-02T15:46:23.799Z,8.00
2018-11-02T15:48:53.138Z,11.13
2018-11-02T15:51:21.423Z,8.20
2018-11-02T15:53:49.615Z,7.33
2018-11-02T15:56:17.850Z,6.80
2018-11-02T15:58:46.043Z,7.30
2018-11-02T16:01:14.355Z,4.77
2018-11-02T16:03:42.503Z,5.00
2018-11-02T16:06:10.707Z,6.13
2018-11-02T16:08:38.886Z,4.37
2018-11-02T16:11:07.139Z,3.90
2018-11-02T16:13:35.266Z,4.20
2018-11-02T16:16:03.552Z,5.27
2018-11-02T16:18:32.308Z,4.37
2018-11-02T16:21:00.637Z,56.07
2018-11-02T16:23:28.812Z,58.13
2018-11-02T16:25:57.189Z,9.60
2018-11-02T16:28:25.365Z,7.63
2018-11-02T16:30:53.608Z,7.03
2018-11-02T16:33:22.189Z,6.67
2018-11-02T16:35:50.814Z,8.43
2018-11-02T16:38:18.982Z,10.73
2018-11-02T16:40:47.133Z,8.57
2018-11-02T16:43:15.617Z,7.93
2018-11-02T16:45:44.327Z,6.73
2018-11-02T16:48:12.896Z,9.83
2018-11-02T16:50:41.242Z,7.07
2018-11-02T16:53:09.704Z,9.83
2018-11-02T16:55:37.909Z,10.13
2018-11-02T16:58:06.411Z,7.63
2018-11-02T17:00:34.670Z,7.00
2018-11-02T17:03:02.876Z,8.57
2018-11-02T17:05:32.040Z,7.40
2018-11-02T17:08:00.577Z,7.70
2018-11-02T17:10:28.845Z,8.03
2018-11-02T17:12:56.943Z,5.97
2018-11-02T17:15:25.149Z,7.37
2018-11-02T17:17:53.416Z,7.83
2018-11-02T17:20:21.732Z,6.63
2018-11-02T17:22:50.068Z,6.80
2018-11-02T17:25:18.489Z,8.47
2018-11-02T17:27:46.933Z,7.60
2018-11-02T17:30:16.661Z,9.13
2018-11-02T17:32:45.180Z,9.43
2018-11-02T17:35:13.530Z,10.20
2018-11-02T17:37:41.795Z,11.27
2018-11-02T17:40:11.727Z,9.83
2018-11-02T17:42:39.997Z,10.43
2018-11-02T17:45:08.778Z,22.27
2018-11-02T17:47:38.327Z,8.90
2018-11-02T17:50:08.202Z,9.67
2018-11-02T17:52:36.531Z,10.03
2018-11-02T17:55:06.034Z,10.63
2018-11-02T17:57:34.508Z,18.97
2018-11-02T18:00:03.116Z,22.83
2018-11-02T18:02:31.466Z,19.40
2018-11-02T18:04:59.979Z,23.17
2018-11-02T18:07:28.658Z,22.93
2018-11-02T18:09:57.343Z,21.33
2018-11-02T18:12:26.053Z,16.87
2018-11-02T18:14:54.176Z,16.57
2018-11-02T18:17:23.739Z,13.03
2018-11-02T18:19:51.984Z,12.00
2018-11-02T18:22:21.382Z,9.10
2018-11-02T18:24:49.616Z,7.87
2018-11-02T18:27:18.013Z,10.07
2018-11-02T18:29:46.678Z,11.30
2018-11-02T18:32:15.053Z,10.10
2018-11-02T18:34:43.718Z,9.27
2018-11-02T18:37:11.888Z,9.50
2018-11-02T18:39:40.352Z,11.97
2018-11-02T18:42:08.735Z,10.67
2018-11-02T18:44:37.055Z,12.87
2018-11-02T18:47:05.757Z,13.03
2018-11-02T18:49:34.091Z,10.87
2018-11-02T18:52:02.750Z,11.43
2018-11-02T18:54:31.833Z,10.80
2018-11-02T18:57:00.709Z,11.17
2018-11-02T18:59:29.249Z,17.57
2018-11-02T19:01:57.584Z,12.07
2018-11-02T19:04:25.916Z,15.57
2018-11-02T19:06:54.718Z,16.93
2018-11-02T19:09:23.164Z,18.80
2018-11-02T19:11:52.212Z,21.53
2018-11-02T19:14:20.533Z,16.77
2018-11-02T19:16:48.879Z,17.43
2018-11-02T19:19:17.234Z,15.37
2018-11-02T19:21:45.644Z,13.23
2018-11-02T19:24:14.477Z,12.63
2018-11-02T19:26:42.737Z,14.00
2018-11-02T19:29:11.320Z,11.60
2018-11-02T19:31:39.484Z,14.27
2018-11-02T19:34:07.827Z,12.47
2018-11-02T19:36:36.348Z,12.93
2018-11-02T19:39:07.560Z,10.50
2018-11-02T19:41:35.957Z,13.13
2018-11-02T19:44:04.966Z,10.83
2018-11-02T19:46:33.633Z,10.77
2018-11-02T19:49:01.905Z,10.57
2018-11-02T19:54:01.025Z,11.20
2018-11-02T19:56:29.504Z,11.20
2018-11-02T19:58:57.822Z,10.43
2018-11-02T20:01:26.484Z,10.20
2018-11-02T20:03:54.758Z,10.83
2018-11-02T20:06:23.135Z,11.37
2018-11-02T20:08:51.295Z,8.47
2018-11-02T20:13:53.932Z,8.93
2018-11-02T20:16:22.232Z,10.40
2018-11-02T20:18:50.880Z,11.30
2018-11-02T20:21:19.210Z,11.57
2018-11-02T20:23:47.420Z,11.70
2018-11-02T20:26:15.659Z,11.80
2018-11-02T20:28:44.097Z,15.27
2018-11-02T20:31:12.472Z,12.83
2018-11-02T20:33:40.701Z,17.67
2018-11-02T20:36:09.401Z,13.87
2018-11-02T20:38:37.693Z,13.50
2018-11-02T20:41:05.956Z,19.13
2018-11-02T20:43:34.169Z,18.90
2018-11-02T20:46:02.557Z,16.57
2018-11-02T20:48:31.043Z,17.00
2018-11-02T20:50:59.362Z,19.93
2018-11-02T20:53:28.419Z,18.90
2018-11-02T20:55:56.669Z,18.67
2018-11-02T20:58:25.079Z,25.33
2018-11-02T21:00:53.233Z,27.93
2018-11-02T21:03:21.671Z,48.13
2018-11-02T21:05:50.135Z,27.07
2018-11-02T21:08:18.375Z,18.40
2018-11-02T21:10:46.716Z,23.70
2018-11-02T21:13:15.182Z,21.77
2018-11-02T21:15:43.626Z,26.50
2018-11-02T21:18:12.112Z,27.13
2018-11-02T21:20:40.680Z,23.27
2018-11-02T21:23:09.755Z,24.57
2018-11-02T21:25:38.404Z,23.30
2018-11-02T21:28:06.615Z,19.00
2018-11-02T21:30:35.353Z,18.53
2018-11-02T21:33:03.819Z,18.60
2018-11-02T21:35:32.061Z,28.97
2018-11-02T21:38:01.810Z,18.90
2018-11-02T21:40:30.109Z,20.83
2018-11-02T21:42:59.089Z,42.40
2018-11-02T21:45:28.147Z,48.20
2018-11-02T21:47:57.020Z,32.33
2018-11-02T21:50:25.651Z,29.90
2018-11-02T21:52:54.341Z,25.57
2018-11-02T21:55:24.480Z,29.43
2018-11-02T21:57:53.623Z,23.80
2018-11-02T22:00:22.536Z,23.87
2018-11-02T22:02:50.941Z,23.43
2018-11-02T22:05:20.103Z,23.60
2018-11-02T22:07:49.782Z,21.70
2018-11-02T22:10:19.078Z,18.67
2018-11-02T22:12:50.435Z,18.20
2018-11-02T22:15:18.721Z,18.43
2018-11-02T22:17:46.943Z,15.43
2018-11-02T22:20:16.730Z,19.93
2018-11-02T22:22:45.143Z,21.93
2018-11-02T22:25:14.593Z,24.53
2018-11-02T22:27:43.302Z,50.20
2018-11-02T22:30:13.385Z,31.50
2018-11-02T22:32:41.954Z,24.80
2018-11-02T22:35:10.956Z,22.40
2018-11-02T22:37:40.610Z,24.07
2018-11-02T22:40:11.158Z,21.90
2018-11-02T22:42:40.999Z,19.70
2018-11-02T22:45:10.313Z,18.43
2018-11-02T22:47:39.904Z,21.47
2018-11-02T22:50:08.612Z,20.10
2018-11-02T22:52:37.092Z,21.30
2018-11-02T22:55:07.065Z,21.33
2018-11-02T22:57:35.327Z,23.03
2018-11-02T23:00:07.310Z,24.77
2018-11-02T23:02:35.650Z,23.77
2018-11-02T23:05:05.221Z,60.07
2018-11-02T23:07:33.585Z,35.03
2018-11-02T23:10:01.951Z,37.57
2018-11-02T23:12:30.228Z,41.30
2018-11-02T23:14:58.482Z,50.97
2018-11-02T23:17:26.687Z,65.20
2018-11-02T23:19:55.053Z,50.23
2018-11-02T23:22:23.847Z,39.10
2018-11-02T23:24:52.175Z,38.83
2018-11-02T23:27:20.994Z,30.37
2018-11-02T23:29:49.511Z,25.50
2018-11-02T23:32:18.191Z,28.20
2018-11-02T23:34:46.632Z,23.90
2018-11-02T23:37:14.921Z,19.63
2018-11-02T23:39:43.280Z,42.33
2018-11-02T23:42:11.646Z,25.03
2018-11-02T23:44:39.953Z,108.07
2018-11-02T23:47:08.825Z,74.57
2018-11-02T23:49:37.233Z,36.93
2018-11-02T23:52:05.826Z,30.37
2018-11-02T23:54:34.196Z,20.23
2018-11-02T23:57:02.625Z,18.53
2018-11-02T23:59:31.457Z,19.37
